sensor_id;sensor_type;location;lat;lon;timestamp;temperature;humidity
24011;DHT22;12217;50.792;4.372;2023-05-16T00:00:05;12.30;99.90
24011;DHT22;12217;50.792;4.372;2023-05-16T00:02:36;12.20;99.90
24011;DHT22;12217;50.792;4.372;2023-05-16T00:05:04;12.00;99.90
24011;DHT22;12217;50.792;4.372;2023-05-16T00:07:32;12.00;99.90
24011;DHT22;12217;50.792;4.372;2023-05-16T00:09:58;12.00;99.90
24011;DHT22;12217;50.792;4.372;2023-05-16T00:12:24;12.00;99.90
24011;DHT22;12217;50.792;4.372;2023-05-16T00:14:50;12.20;99.90
24011;DHT22;12217;50.792;4.372;2023-05-16T00:17:17;12.20;99.90
24011;DHT22;12217;50.792;4.372;2023-05-16T00:19:45;12.20;99.90
24011;DHT22;12217;50.792;4.372;2023-05-16T00:22:14;12.10;99.90
24011;DHT22;12217;50.792;4.372;2023-05-16T00:24:40;12.10;99.90
24011;DHT22;12217;50.792;4.372;2023-05-16T00:27:06;12.00;99.90
24011;DHT22;12217;50.792;4.372;2023-05-16T00:29:33;11.90;99.90
24011;DHT22;12217;50.792;4.372;2023-05-16T00:31:59;11.90;99.90
24011;DHT22;12217;50.792;4.372;2023-05-16T00:34:25;11.80;99.90
24011;DHT22;12217;50.792;4.372;2023-05-16T00:36:50;11.80;99.90
24011;DHT22;12217;50.792;4.372;2023-05-16T00:39:16;11.70;99.90
24011;DHT22;12217;50.792;4.372;2023-05-16T00:41:42;11.60;99.90
24011;DHT22;12217;50.792;4.372;2023-05-16T00:44:08;11.60;99.90
24011;DHT22;12217;50.792;4.372;2023-05-16T00:46:35;11.90;99.90
24011;DHT22;12217;50.792;4.372;2023-05-16T00:49:02;11.80;99.90
24011;DHT22;12217;50.792;4.372;2023-05-16T00:51:28;11.80;99.90
24011;DHT22;12217;50.792;4.372;2023-05-16T00:53:54;11.70;99.90
24011;DHT22;12217;50.792;4.372;2023-05-16T00:56:21;11.70;99.90
24011;DHT22;12217;50.792;4.372;2023-05-16T00:58:47;11.60;99.90
24011;DHT22;12217;50.792;4.372;2023-05-16T01:01:13;11.50;99.90
24011;DHT22;12217;50.792;4.372;2023-05-16T01:03:39;11.40;99.90
24011;DHT22;12217;50.792;4.372;2023-05-16T01:06:05;11.50;99.90
24011;DHT22;12217;50.792;4.372;2023-05-16T01:08:32;11.50;99.90
24011;DHT22;12217;50.792;4.372;2023-05-16T01:14:28;11.60;99.90
24011;DHT22;12217;50.792;4.372;2023-05-16T01:17:06;11.70;99.90
24011;DHT22;12217;50.792;4.372;2023-05-16T01:19:55;11.50;99.90
24011;DHT22;12217;50.792;4.372;2023-05-16T01:27:34;11.30;99.90
24011;DHT22;12217;50.792;4.372;2023-05-16T01:30:14;11.30;99.90
24011;DHT22;12217;50.792;4.372;2023-05-16T01:32:40;11.20;99.90
24011;DHT22;12217;50.792;4.372;2023-05-16T01:35:07;11.20;99.90
24011;DHT22;12217;50.792;4.372;2023-05-16T01:38:16;11.30;99.90
24011;DHT22;12217;50.792;4.372;2023-05-16T01:43:50;11.30;99.90
24011;DHT22;12217;50.792;4.372;2023-05-16T01:46:23;11.40;99.90
24011;DHT22;12217;50.792;4.372;2023-05-16T01:48:53;11.30;99.90
24011;DHT22;12217;50.792;4.372;2023-05-16T01:51:22;11.20;99.90
24011;DHT22;12217;50.792;4.372;2023-05-16T01:53:49;11.20;99.90
24011;DHT22;12217;50.792;4.372;2023-05-16T01:56:17;11.30;99.90
24011;DHT22;12217;50.792;4.372;2023-05-16T01:58:47;11.30;99.90
24011;DHT22;12217;50.792;4.372;2023-05-16T02:01:14;11.20;99.90
24011;DHT22;12217;50.792;4.372;2023-05-16T02:03:39;11.30;99.90
24011;DHT22;12217;50.792;4.372;2023-05-16T02:06:05;11.30;99.90
24011;DHT22;12217;50.792;4.372;2023-05-16T02:08:31;11.20;99.90
24011;DHT22;12217;50.792;4.372;2023-05-16T02:10:57;11.20;99.90
24011;DHT22;12217;50.792;4.372;2023-05-16T02:13:22;11.20;99.90
24011;DHT22;12217;50.792;4.372;2023-05-16T02:15:48;11.20;99.90
24011;DHT22;12217;50.792;4.372;2023-05-16T02:18:14;11.20;99.90
24011;DHT22;12217;50.792;4.372;2023-05-16T02:20:40;11.30;99.90
24011;DHT22;12217;50.792;4.372;2023-05-16T02:23:06;11.30;99.90
24011;DHT22;12217;50.792;4.372;2023-05-16T02:25:31;11.20;99.90
24011;DHT22;12217;50.792;4.372;2023-05-16T02:27:57;11.20;99.90
24011;DHT22;12217;50.792;4.372;2023-05-16T02:30:23;11.10;99.90
24011;DHT22;12217;50.792;4.372;2023-05-16T02:32:48;11.10;99.90
24011;DHT22;12217;50.792;4.372;2023-05-16T02:35:14;11.10;99.90
24011;DHT22;12217;50.792;4.372;2023-05-16T02:37:40;11.10;99.90
24011;DHT22;12217;50.792;4.372;2023-05-16T02:40:07;11.00;99.90
24011;DHT22;12217;50.792;4.372;2023-05-16T02:42:33;11.10;99.90
24011;DHT22;12217;50.792;4.372;2023-05-16T02:44:59;11.10;99.90
24011;DHT22;12217;50.792;4.372;2023-05-16T02:47:24;11.10;99.90
24011;DHT22;12217;50.792;4.372;2023-05-16T02:49:50;11.20;99.90
24011;DHT22;12217;50.792;4.372;2023-05-16T02:52:19;11.20;99.90
24011;DHT22;12217;50.792;4.372;2023-05-16T02:54:45;11.10;99.90
24011;DHT22;12217;50.792;4.372;2023-05-16T02:57:14;11.10;99.90
24011;DHT22;12217;50.792;4.372;2023-05-16T02:59:40;11.10;99.90
24011;DHT22;12217;50.792;4.372;2023-05-16T03:02:06;11.00;99.90
24011;DHT22;12217;50.792;4.372;2023-05-16T03:04:35;11.00;99.90
24011;DHT22;12217;50.792;4.372;2023-05-16T03:07:01;11.00;99.90
24011;DHT22;12217;50.792;4.372;2023-05-16T03:09:27;11.10;99.90
24011;DHT22;12217;50.792;4.372;2023-05-16T03:11:52;11.00;99.90
24011;DHT22;12217;50.792;4.372;2023-05-16T03:14:18;11.00;99.90
24011;DHT22;12217;50.792;4.372;2023-05-16T03:16:44;10.90;99.90
24011;DHT22;12217;50.792;4.372;2023-05-16T03:19:10;10.90;99.90
24011;DHT22;12217;50.792;4.372;2023-05-16T03:21:39;10.70;99.90
24011;DHT22;12217;50.792;4.372;2023-05-16T03:24:04;10.80;99.90
24011;DHT22;12217;50.792;4.372;2023-05-16T03:26:30;10.80;99.90
24011;DHT22;12217;50.792;4.372;2023-05-16T03:28:56;10.80;99.90
24011;DHT22;12217;50.792;4.372;2023-05-16T03:31:22;10.80;99.90
24011;DHT22;12217;50.792;4.372;2023-05-16T03:33:47;10.80;99.90
24011;DHT22;12217;50.792;4.372;2023-05-16T03:36:13;10.80;99.90
24011;DHT22;12217;50.792;4.372;2023-05-16T03:38:39;10.80;99.90
24011;DHT22;12217;50.792;4.372;2023-05-16T03:41:04;10.80;99.90
24011;DHT22;12217;50.792;4.372;2023-05-16T03:43:32;10.70;99.90
24011;DHT22;12217;50.792;4.372;2023-05-16T03:46:00;10.80;99.90
24011;DHT22;12217;50.792;4.372;2023-05-16T03:48:26;10.90;99.90
24011;DHT22;12217;50.792;4.372;2023-05-16T03:50:51;10.90;99.90
24011;DHT22;12217;50.792;4.372;2023-05-16T03:53:17;11.00;99.90
24011;DHT22;12217;50.792;4.372;2023-05-16T03:55:43;11.00;99.90
24011;DHT22;12217;50.792;4.372;2023-05-16T03:58:08;11.00;99.90
24011;DHT22;12217;50.792;4.372;2023-05-16T04:00:34;10.90;99.90
24011;DHT22;12217;50.792;4.372;2023-05-16T04:03:01;10.90;99.90
24011;DHT22;12217;50.792;4.372;2023-05-16T04:05:27;10.80;99.90
24011;DHT22;12217;50.792;4.372;2023-05-16T04:07:53;11.00;99.90
24011;DHT22;12217;50.792;4.372;2023-05-16T04:10:22;10.80;99.90
24011;DHT22;12217;50.792;4.372;2023-05-16T04:12:47;10.80;99.90
24011;DHT22;12217;50.792;4.372;2023-05-16T04:15:13;10.80;99.90
24011;DHT22;12217;50.792;4.372;2023-05-16T04:17:39;10.80;99.90
24011;DHT22;12217;50.792;4.372;2023-05-16T04:20:05;10.80;99.90
24011;DHT22;12217;50.792;4.372;2023-05-16T04:22:31;10.70;99.90
24011;DHT22;12217;50.792;4.372;2023-05-16T04:24:57;10.70;99.90
24011;DHT22;12217;50.792;4.372;2023-05-16T04:27:26;10.70;99.90
24011;DHT22;12217;50.792;4.372;2023-05-16T04:29:51;10.70;99.90
24011;DHT22;12217;50.792;4.372;2023-05-16T04:32:17;10.70;99.90
24011;DHT22;12217;50.792;4.372;2023-05-16T04:34:46;10.80;99.90
24011;DHT22;12217;50.792;4.372;2023-05-16T04:37:13;10.80;99.90
24011;DHT22;12217;50.792;4.372;2023-05-16T04:39:38;10.90;99.90
24011;DHT22;12217;50.792;4.372;2023-05-16T04:42:04;10.90;99.90
24011;DHT22;12217;50.792;4.372;2023-05-16T04:44:30;10.90;99.90
24011;DHT22;12217;50.792;4.372;2023-05-16T04:46:56;10.90;99.90
24011;DHT22;12217;50.792;4.372;2023-05-16T04:49:22;11.00;99.90
24011;DHT22;12217;50.792;4.372;2023-05-16T04:51:48;11.10;99.90
24011;DHT22;12217;50.792;4.372;2023-05-16T04:54:14;11.10;99.90
24011;DHT22;12217;50.792;4.372;2023-05-16T04:56:43;10.90;99.90
24011;DHT22;12217;50.792;4.372;2023-05-16T04:59:08;11.00;99.90
24011;DHT22;12217;50.792;4.372;2023-05-16T05:01:34;11.10;99.90
24011;DHT22;12217;50.792;4.372;2023-05-16T05:04:00;11.10;99.90
24011;DHT22;12217;50.792;4.372;2023-05-16T05:06:25;11.20;99.90
24011;DHT22;12217;50.792;4.372;2023-05-16T05:08:51;11.30;99.90
24011;DHT22;12217;50.792;4.372;2023-05-16T05:11:17;11.30;99.90
24011;DHT22;12217;50.792;4.372;2023-05-16T05:13:43;11.20;99.90
24011;DHT22;12217;50.792;4.372;2023-05-16T05:16:11;11.30;99.90
24011;DHT22;12217;50.792;4.372;2023-05-16T05:18:39;11.40;99.90
24011;DHT22;12217;50.792;4.372;2023-05-16T05:21:04;11.30;99.90
24011;DHT22;12217;50.792;4.372;2023-05-16T05:23:30;11.30;99.90
24011;DHT22;12217;50.792;4.372;2023-05-16T05:26:00;11.40;99.90
24011;DHT22;12217;50.792;4.372;2023-05-16T05:28:26;11.40;99.90
24011;DHT22;12217;50.792;4.372;2023-05-16T05:30:52;11.50;99.90
24011;DHT22;12217;50.792;4.372;2023-05-16T05:33:18;11.50;99.90
24011;DHT22;12217;50.792;4.372;2023-05-16T05:35:43;11.50;99.90
24011;DHT22;12217;50.792;4.372;2023-05-16T05:38:09;11.50;99.90
24011;DHT22;12217;50.792;4.372;2023-05-16T05:40:35;11.50;99.90
24011;DHT22;12217;50.792;4.372;2023-05-16T05:43:03;11.50;99.90
24011;DHT22;12217;50.792;4.372;2023-05-16T05:45:29;11.60;99.90
24011;DHT22;12217;50.792;4.372;2023-05-16T05:47:54;11.60;99.90
24011;DHT22;12217;50.792;4.372;2023-05-16T05:50:21;11.60;99.90
24011;DHT22;12217;50.792;4.372;2023-05-16T05:52:46;11.60;99.90
24011;DHT22;12217;50.792;4.372;2023-05-16T05:55:12;11.60;99.90
24011;DHT22;12217;50.792;4.372;2023-05-16T05:57:39;11.70;99.90
24011;DHT22;12217;50.792;4.372;2023-05-16T06:00:05;11.70;99.90
24011;DHT22;12217;50.792;4.372;2023-05-16T06:02:31;11.80;99.90
24011;DHT22;12217;50.792;4.372;2023-05-16T06:04:57;11.90;99.90
24011;DHT22;12217;50.792;4.372;2023-05-16T06:07:23;11.70;99.90
24011;DHT22;12217;50.792;4.372;2023-05-16T06:09:49;11.80;99.90
24011;DHT22;12217;50.792;4.372;2023-05-16T06:12:14;11.90;99.90
24011;DHT22;12217;50.792;4.372;2023-05-16T06:14:41;12.10;99.90
24011;DHT22;12217;50.792;4.372;2023-05-16T06:17:08;12.20;99.90
24011;DHT22;12217;50.792;4.372;2023-05-16T06:19:33;12.30;99.90
24011;DHT22;12217;50.792;4.372;2023-05-16T06:21:59;12.40;99.90
24011;DHT22;12217;50.792;4.372;2023-05-16T06:24:28;12.40;99.90
24011;DHT22;12217;50.792;4.372;2023-05-16T06:26:54;12.60;99.90
24011;DHT22;12217;50.792;4.372;2023-05-16T06:29:20;12.60;99.90
24011;DHT22;12217;50.792;4.372;2023-05-16T06:31:45;12.70;99.90
24011;DHT22;12217;50.792;4.372;2023-05-16T06:34:11;12.90;99.90
24011;DHT22;12217;50.792;4.372;2023-05-16T06:36:37;13.10;99.90
24011;DHT22;12217;50.792;4.372;2023-05-16T06:39:03;13.30;99.90
24011;DHT22;12217;50.792;4.372;2023-05-16T06:41:29;13.20;99.90
24011;DHT22;12217;50.792;4.372;2023-05-16T06:43:55;13.20;99.90
24011;DHT22;12217;50.792;4.372;2023-05-16T06:46:21;13.30;99.90
24011;DHT22;12217;50.792;4.372;2023-05-16T06:48:46;13.30;99.90
24011;DHT22;12217;50.792;4.372;2023-05-16T06:51:12;13.30;99.90
24011;DHT22;12217;50.792;4.372;2023-05-16T06:53:40;13.30;99.90
24011;DHT22;12217;50.792;4.372;2023-05-16T06:56:06;13.30;99.90
24011;DHT22;12217;50.792;4.372;2023-05-16T06:58:32;13.40;99.90
24011;DHT22;12217;50.792;4.372;2023-05-16T07:00:57;13.40;99.90
24011;DHT22;12217;50.792;4.372;2023-05-16T07:03:23;13.30;99.90
24011;DHT22;12217;50.792;4.372;2023-05-16T07:05:48;13.20;99.90
24011;DHT22;12217;50.792;4.372;2023-05-16T07:08:17;13.20;99.90
24011;DHT22;12217;50.792;4.372;2023-05-16T07:10:42;13.10;99.90
24011;DHT22;12217;50.792;4.372;2023-05-16T07:13:09;13.00;99.90
24011;DHT22;12217;50.792;4.372;2023-05-16T07:15:34;13.10;99.90
24011;DHT22;12217;50.792;4.372;2023-05-16T07:18:01;12.80;99.90
24011;DHT22;12217;50.792;4.372;2023-05-16T07:20:27;12.90;99.90
24011;DHT22;12217;50.792;4.372;2023-05-16T07:22:52;13.10;99.90
24011;DHT22;12217;50.792;4.372;2023-05-16T07:25:18;13.00;99.90
24011;DHT22;12217;50.792;4.372;2023-05-16T07:27:43;12.90;99.90
24011;DHT22;12217;50.792;4.372;2023-05-16T07:30:11;12.90;99.90
24011;DHT22;12217;50.792;4.372;2023-05-16T07:32:37;12.80;99.90
24011;DHT22;12217;50.792;4.372;2023-05-16T07:35:06;12.80;99.90
24011;DHT22;12217;50.792;4.372;2023-05-16T07:37:32;13.00;99.90
24011;DHT22;12217;50.792;4.372;2023-05-16T07:39:58;13.00;99.90
24011;DHT22;12217;50.792;4.372;2023-05-16T07:42:23;12.90;99.90
24011;DHT22;12217;50.792;4.372;2023-05-16T07:44:49;12.80;99.90
24011;DHT22;12217;50.792;4.372;2023-05-16T07:47:15;12.90;99.90
24011;DHT22;12217;50.792;4.372;2023-05-16T07:49:41;12.90;99.90
24011;DHT22;12217;50.792;4.372;2023-05-16T07:52:09;13.00;99.90
24011;DHT22;12217;50.792;4.372;2023-05-16T07:54:34;13.10;99.90
24011;DHT22;12217;50.792;4.372;2023-05-16T07:57:01;13.30;99.90
24011;DHT22;12217;50.792;4.372;2023-05-16T07:59:27;13.60;99.90
24011;DHT22;12217;50.792;4.372;2023-05-16T08:01:53;13.70;99.90
24011;DHT22;12217;50.792;4.372;2023-05-16T08:04:20;13.90;99.90
24011;DHT22;12217;50.792;4.372;2023-05-16T08:06:46;14.10;99.90
24011;DHT22;12217;50.792;4.372;2023-05-16T08:09:11;14.20;99.90
24011;DHT22;12217;50.792;4.372;2023-05-16T08:11:37;14.20;99.90
24011;DHT22;12217;50.792;4.372;2023-05-16T08:14:04;14.30;99.90
24011;DHT22;12217;50.792;4.372;2023-05-16T08:16:30;14.10;99.90
24011;DHT22;12217;50.792;4.372;2023-05-16T08:18:55;14.00;99.90
24011;DHT22;12217;50.792;4.372;2023-05-16T08:21:21;14.00;99.90
24011;DHT22;12217;50.792;4.372;2023-05-16T08:23:47;14.10;99.90
24011;DHT22;12217;50.792;4.372;2023-05-16T08:26:12;14.20;99.90
24011;DHT22;12217;50.792;4.372;2023-05-16T08:28:38;14.30;99.90
24011;DHT22;12217;50.792;4.372;2023-05-16T08:31:04;14.50;99.90
24011;DHT22;12217;50.792;4.372;2023-05-16T08:33:29;14.70;99.90
24011;DHT22;12217;50.792;4.372;2023-05-16T08:35:55;14.80;99.90
24011;DHT22;12217;50.792;4.372;2023-05-16T08:38:20;14.90;99.90
24011;DHT22;12217;50.792;4.372;2023-05-16T08:40:46;14.80;99.90
24011;DHT22;12217;50.792;4.372;2023-05-16T08:43:12;14.70;99.90
24011;DHT22;12217;50.792;4.372;2023-05-16T08:45:39;14.50;99.90
24011;DHT22;12217;50.792;4.372;2023-05-16T08:48:06;14.50;99.90
24011;DHT22;12217;50.792;4.372;2023-05-16T08:50:32;14.50;99.90
24011;DHT22;12217;50.792;4.372;2023-05-16T08:53:07;14.70;99.90
24011;DHT22;12217;50.792;4.372;2023-05-16T08:55:35;14.70;99.90
24011;DHT22;12217;50.792;4.372;2023-05-16T08:58:00;14.70;99.90
24011;DHT22;12217;50.792;4.372;2023-05-16T09:00:26;14.60;99.90
24011;DHT22;12217;50.792;4.372;2023-05-16T09:02:52;14.50;99.90
24011;DHT22;12217;50.792;4.372;2023-05-16T09:05:18;14.40;99.90
24011;DHT22;12217;50.792;4.372;2023-05-16T09:07:44;14.20;99.90
24011;DHT22;12217;50.792;4.372;2023-05-16T09:10:10;14.30;99.90
24011;DHT22;12217;50.792;4.372;2023-05-16T09:12:37;14.40;99.90
24011;DHT22;12217;50.792;4.372;2023-05-16T09:15:05;14.40;99.90
24011;DHT22;12217;50.792;4.372;2023-05-16T09:17:41;14.50;99.90
24011;DHT22;12217;50.792;4.372;2023-05-16T09:20:11;14.70;99.90
24011;DHT22;12217;50.792;4.372;2023-05-16T09:22:38;14.80;99.90
24011;DHT22;12217;50.792;4.372;2023-05-16T09:25:05;14.90;99.90
24011;DHT22;12217;50.792;4.372;2023-05-16T09:27:31;14.70;99.90
24011;DHT22;12217;50.792;4.372;2023-05-16T09:29:58;14.60;99.90
24011;DHT22;12217;50.792;4.372;2023-05-16T09:32:24;14.50;99.90
24011;DHT22;12217;50.792;4.372;2023-05-16T09:34:52;14.40;99.90
24011;DHT22;12217;50.792;4.372;2023-05-16T09:37:18;14.60;99.90
24011;DHT22;12217;50.792;4.372;2023-05-16T09:39:48;14.70;99.90
24011;DHT22;12217;50.792;4.372;2023-05-16T09:42:16;14.90;99.90
24011;DHT22;12217;50.792;4.372;2023-05-16T09:44:49;14.90;99.90
24011;DHT22;12217;50.792;4.372;2023-05-16T09:47:16;15.00;99.90
24011;DHT22;12217;50.792;4.372;2023-05-16T09:49:46;15.00;99.90
24011;DHT22;12217;50.792;4.372;2023-05-16T09:52:13;15.00;99.90
24011;DHT22;12217;50.792;4.372;2023-05-16T09:54:39;15.30;99.90
24011;DHT22;12217;50.792;4.372;2023-05-16T09:57:06;15.30;99.90
24011;DHT22;12217;50.792;4.372;2023-05-16T09:59:38;15.50;99.90
24011;DHT22;12217;50.792;4.372;2023-05-16T10:02:05;15.60;99.90
24011;DHT22;12217;50.792;4.372;2023-05-16T10:04:36;15.40;99.90
24011;DHT22;12217;50.792;4.372;2023-05-16T10:07:03;15.40;99.90
24011;DHT22;12217;50.792;4.372;2023-05-16T10:09:31;15.60;99.90
24011;DHT22;12217;50.792;4.372;2023-05-16T10:11:59;15.70;99.90
24011;DHT22;12217;50.792;4.372;2023-05-16T10:14:27;15.90;99.90
24011;DHT22;12217;50.792;4.372;2023-05-16T10:16:55;16.20;99.90
24011;DHT22;12217;50.792;4.372;2023-05-16T10:19:23;16.30;99.90
24011;DHT22;12217;50.792;4.372;2023-05-16T10:21:53;16.50;99.90
24011;DHT22;12217;50.792;4.372;2023-05-16T10:24:28;16.40;99.90
24011;DHT22;12217;50.792;4.372;2023-05-16T10:26:55;16.40;99.90
24011;DHT22;12217;50.792;4.372;2023-05-16T10:29:21;16.50;99.90
24011;DHT22;12217;50.792;4.372;2023-05-16T10:31:48;16.90;99.90
24011;DHT22;12217;50.792;4.372;2023-05-16T10:34:15;17.00;99.90
24011;DHT22;12217;50.792;4.372;2023-05-16T10:36:42;16.90;99.90
24011;DHT22;12217;50.792;4.372;2023-05-16T10:39:08;16.80;99.90
24011;DHT22;12217;50.792;4.372;2023-05-16T10:41:34;17.00;99.90
24011;DHT22;12217;50.792;4.372;2023-05-16T10:44:00;17.20;99.90
24011;DHT22;12217;50.792;4.372;2023-05-16T10:46:27;17.50;99.90
24011;DHT22;12217;50.792;4.372;2023-05-16T10:48:56;17.60;99.90
24011;DHT22;12217;50.792;4.372;2023-05-16T10:53:50;17.60;99.90
24011;DHT22;12217;50.792;4.372;2023-05-16T10:56:21;17.80;99.90
24011;DHT22;12217;50.792;4.372;2023-05-16T10:58:48;18.10;99.90
24011;DHT22;12217;50.792;4.372;2023-05-16T11:06:26;18.20;99.90
24011;DHT22;12217;50.792;4.372;2023-05-16T11:16:58;18.60;99.90
24011;DHT22;12217;50.792;4.372;2023-05-16T11:19:48;18.30;99.90
24011;DHT22;12217;50.792;4.372;2023-05-16T11:22:27;18.30;99.90
24011;DHT22;12217;50.792;4.372;2023-05-16T11:25:05;18.20;99.90
24011;DHT22;12217;50.792;4.372;2023-05-16T11:27:43;18.30;99.90
24011;DHT22;12217;50.792;4.372;2023-05-16T11:32:39;18.50;99.90
24011;DHT22;12217;50.792;4.372;2023-05-16T11:35:07;18.60;99.90
24011;DHT22;12217;50.792;4.372;2023-05-16T11:37:34;18.30;99.90
24011;DHT22;12217;50.792;4.372;2023-05-16T11:40:07;18.10;99.90
24011;DHT22;12217;50.792;4.372;2023-05-16T11:42:35;18.10;99.90
24011;DHT22;12217;50.792;4.372;2023-05-16T11:45:05;18.20;99.90
24011;DHT22;12217;50.792;4.372;2023-05-16T11:47:31;18.30;99.90
24011;DHT22;12217;50.792;4.372;2023-05-16T11:49:57;18.40;99.90
24011;DHT22;12217;50.792;4.372;2023-05-16T11:52:22;18.10;99.90
24011;DHT22;12217;50.792;4.372;2023-05-16T11:54:48;17.90;99.90
24011;DHT22;12217;50.792;4.372;2023-05-16T11:57:15;17.70;99.90
24011;DHT22;12217;50.792;4.372;2023-05-16T11:59:41;17.50;99.90
24011;DHT22;12217;50.792;4.372;2023-05-16T12:02:07;17.30;99.90
24011;DHT22;12217;50.792;4.372;2023-05-16T12:04:34;17.30;99.90
24011;DHT22;12217;50.792;4.372;2023-05-16T12:07:02;17.40;99.90
24011;DHT22;12217;50.792;4.372;2023-05-16T12:09:29;17.40;99.90
24011;DHT22;12217;50.792;4.372;2023-05-16T12:11:55;17.50;99.90
24011;DHT22;12217;50.792;4.372;2023-05-16T12:14:21;17.50;99.90
24011;DHT22;12217;50.792;4.372;2023-05-16T12:16:47;17.50;99.90
24011;DHT22;12217;50.792;4.372;2023-05-16T12:19:13;17.40;99.90
24011;DHT22;12217;50.792;4.372;2023-05-16T12:21:39;17.80;99.90
24011;DHT22;12217;50.792;4.372;2023-05-16T12:24:09;18.00;99.90
24011;DHT22;12217;50.792;4.372;2023-05-16T12:26:39;18.30;99.90
24011;DHT22;12217;50.792;4.372;2023-05-16T12:29:05;18.50;99.90
24011;DHT22;12217;50.792;4.372;2023-05-16T12:31:35;18.70;99.90
24011;DHT22;12217;50.792;4.372;2023-05-16T12:34:01;18.80;99.90
24011;DHT22;12217;50.792;4.372;2023-05-16T12:36:31;18.50;99.90
24011;DHT22;12217;50.792;4.372;2023-05-16T12:39:01;18.30;99.90
24011;DHT22;12217;50.792;4.372;2023-05-16T12:41:29;18.00;99.90
24011;DHT22;12217;50.792;4.372;2023-05-16T12:44:15;17.80;99.90
24011;DHT22;12217;50.792;4.372;2023-05-16T12:46:46;17.90;99.90
24011;DHT22;12217;50.792;4.372;2023-05-16T12:49:14;17.90;99.90
24011;DHT22;12217;50.792;4.372;2023-05-16T12:51:46;18.10;99.90
24011;DHT22;12217;50.792;4.372;2023-05-16T12:54:13;18.00;98.60
24011;DHT22;12217;50.792;4.372;2023-05-16T12:56:40;18.10;99.60
24011;DHT22;12217;50.792;4.372;2023-05-16T12:59:06;18.30;99.60
24011;DHT22;12217;50.792;4.372;2023-05-16T13:01:33;18.50;98.00
24011;DHT22;12217;50.792;4.372;2023-05-16T13:03:59;18.80;96.30
24011;DHT22;12217;50.792;4.372;2023-05-16T13:06:25;18.90;94.80
24011;DHT22;12217;50.792;4.372;2023-05-16T13:08:51;18.70;96.50
24011;DHT22;12217;50.792;4.372;2023-05-16T13:11:17;18.70;97.30
24011;DHT22;12217;50.792;4.372;2023-05-16T13:13:43;18.80;98.50
24011;DHT22;12217;50.792;4.372;2023-05-16T13:16:09;18.90;94.70
24011;DHT22;12217;50.792;4.372;2023-05-16T13:18:35;18.90;92.90
24011;DHT22;12217;50.792;4.372;2023-05-16T13:21:01;19.00;93.60
24011;DHT22;12217;50.792;4.372;2023-05-16T13:23:29;19.30;97.30
24011;DHT22;12217;50.792;4.372;2023-05-16T13:25:55;19.30;95.90
24011;DHT22;12217;50.792;4.372;2023-05-16T13:28:20;19.10;92.90
24011;DHT22;12217;50.792;4.372;2023-05-16T13:30:46;19.00;94.90
24011;DHT22;12217;50.792;4.372;2023-05-16T13:33:11;18.90;95.90
24011;DHT22;12217;50.792;4.372;2023-05-16T13:35:37;18.90;95.10
24011;DHT22;12217;50.792;4.372;2023-05-16T13:38:03;19.10;95.70
24011;DHT22;12217;50.792;4.372;2023-05-16T13:40:29;19.20;95.50
24011;DHT22;12217;50.792;4.372;2023-05-16T13:42:55;19.10;93.90
24011;DHT22;12217;50.792;4.372;2023-05-16T13:45:21;19.10;95.30
24011;DHT22;12217;50.792;4.372;2023-05-16T13:47:47;19.40;93.60
24011;DHT22;12217;50.792;4.372;2023-05-16T13:50:12;19.00;92.60
24011;DHT22;12217;50.792;4.372;2023-05-16T13:52:38;19.10;94.80
24011;DHT22;12217;50.792;4.372;2023-05-16T13:55:05;19.20;93.80
24011;DHT22;12217;50.792;4.372;2023-05-16T13:57:31;18.90;92.70
24011;DHT22;12217;50.792;4.372;2023-05-16T13:59:58;18.60;94.30
24011;DHT22;12217;50.792;4.372;2023-05-16T14:02:24;18.60;96.30
24011;DHT22;12217;50.792;4.372;2023-05-16T14:04:51;18.60;94.70
24011;DHT22;12217;50.792;4.372;2023-05-16T14:07:17;19.10;96.80
24011;DHT22;12217;50.792;4.372;2023-05-16T14:09:42;19.60;94.70
24011;DHT22;12217;50.792;4.372;2023-05-16T14:12:09;19.60;94.20
24011;DHT22;12217;50.792;4.372;2023-05-16T14:14:36;19.80;94.40
24011;DHT22;12217;50.792;4.372;2023-05-16T14:17:02;19.80;93.30
24011;DHT22;12217;50.792;4.372;2023-05-16T14:19:29;19.90;93.20
24011;DHT22;12217;50.792;4.372;2023-05-16T14:21:54;19.80;91.70
24011;DHT22;12217;50.792;4.372;2023-05-16T14:24:20;19.50;90.90
24011;DHT22;12217;50.792;4.372;2023-05-16T14:26:46;19.30;92.10
24011;DHT22;12217;50.792;4.372;2023-05-16T14:29:11;19.20;92.60
24011;DHT22;12217;50.792;4.372;2023-05-16T14:31:38;18.80;92.40
24011;DHT22;12217;50.792;4.372;2023-05-16T14:34:04;18.80;94.60
24011;DHT22;12217;50.792;4.372;2023-05-16T14:36:30;18.80;93.70
24011;DHT22;12217;50.792;4.372;2023-05-16T14:38:56;19.00;94.00
24011;DHT22;12217;50.792;4.372;2023-05-16T14:41:22;19.00;94.20
24011;DHT22;12217;50.792;4.372;2023-05-16T14:43:48;19.20;92.60
24011;DHT22;12217;50.792;4.372;2023-05-16T14:46:13;19.30;92.20
24011;DHT22;12217;50.792;4.372;2023-05-16T14:48:39;19.30;91.30
24011;DHT22;12217;50.792;4.372;2023-05-16T14:51:05;19.50;91.60
24011;DHT22;12217;50.792;4.372;2023-05-16T14:53:31;19.60;90.50
24011;DHT22;12217;50.792;4.372;2023-05-16T14:55:57;19.70;90.70
24011;DHT22;12217;50.792;4.372;2023-05-16T14:58:23;20.10;91.30
24011;DHT22;12217;50.792;4.372;2023-05-16T15:00:49;20.20;90.80
24011;DHT22;12217;50.792;4.372;2023-05-16T15:03:16;20.30;90.00
24011;DHT22;12217;50.792;4.372;2023-05-16T15:05:42;20.00;90.20
24011;DHT22;12217;50.792;4.372;2023-05-16T15:08:08;20.00;89.40
24011;DHT22;12217;50.792;4.372;2023-05-16T15:10:34;20.10;90.60
24011;DHT22;12217;50.792;4.372;2023-05-16T15:13:00;20.20;88.40
24011;DHT22;12217;50.792;4.372;2023-05-16T15:15:25;20.10;89.30
24011;DHT22;12217;50.792;4.372;2023-05-16T15:17:51;20.00;88.20
24011;DHT22;12217;50.792;4.372;2023-05-16T15:20:18;19.70;90.20
24011;DHT22;12217;50.792;4.372;2023-05-16T15:22:43;19.40;90.40
24011;DHT22;12217;50.792;4.372;2023-05-16T15:25:10;19.30;90.20
24011;DHT22;12217;50.792;4.372;2023-05-16T15:27:35;18.90;90.30
24011;DHT22;12217;50.792;4.372;2023-05-16T15:30:01;18.70;92.30
24011;DHT22;12217;50.792;4.372;2023-05-16T15:32:27;18.70;91.80
24011;DHT22;12217;50.792;4.372;2023-05-16T15:34:53;18.60;91.60
24011;DHT22;12217;50.792;4.372;2023-05-16T15:37:19;18.60;92.40
24011;DHT22;12217;50.792;4.372;2023-05-16T15:39:44;18.60;93.00
24011;DHT22;12217;50.792;4.372;2023-05-16T15:42:10;18.70;93.10
24011;DHT22;12217;50.792;4.372;2023-05-16T15:44:36;18.70;92.80
24011;DHT22;12217;50.792;4.372;2023-05-16T15:47:02;18.60;92.80
24011;DHT22;12217;50.792;4.372;2023-05-16T15:49:28;18.60;94.00
24011;DHT22;12217;50.792;4.372;2023-05-16T15:51:53;18.40;93.70
24011;DHT22;12217;50.792;4.372;2023-05-16T15:54:19;18.40;95.20
24011;DHT22;12217;50.792;4.372;2023-05-16T15:56:45;18.60;94.90